createdAt,value
2019-02-21T00:03:29.499Z,42.03
2019-02-21T00:07:35.601Z,39.10
2019-02-21T00:11:41.696Z,38.47
2019-02-21T00:15:46.714Z,39.90
2019-02-21T00:19:51.718Z,37.03
2019-02-21T00:23:56.755Z,48.07
2019-02-21T00:28:01.760Z,37.07
2019-02-21T00:32:06.743Z,37.50
2019-02-21T00:36:11.776Z,39.63
2019-02-21T00:40:16.803Z,39.17
2019-02-21T00:44:21.888Z,47.37
2019-02-21T00:48:26.972Z,38.20
2019-02-21T00:52:31.972Z,40.73
2019-02-21T00:56:37.348Z,38.97
2019-02-21T01:00:46.530Z,40.00
2019-02-21T01:04:49.164Z,40.67
2019-02-21T01:08:54.176Z,40.47
2019-02-21T01:12:59.332Z,47.13
2019-02-21T01:17:04.387Z,43.77
2019-02-21T01:21:09.460Z,40.33
2019-02-21T01:25:14.535Z,46.90
2019-02-21T01:29:19.544Z,45.00
2019-02-21T01:33:24.557Z,44.13
2019-02-21T01:37:29.669Z,38.07
2019-02-21T01:41:34.659Z,44.13
2019-02-21T01:45:39.666Z,43.53
2019-02-21T01:49:44.689Z,48.57
2019-02-21T01:53:49.691Z,45.27
2019-02-21T01:57:54.690Z,50.63
2019-02-21T02:02:00.662Z,44.10
2019-02-21T02:06:05.668Z,42.57
2019-02-21T02:10:11.069Z,52.93
2019-02-21T02:14:16.146Z,48.83
2019-02-21T02:18:21.203Z,50.67
2019-02-21T02:22:26.285Z,45.30
2019-02-21T02:26:31.296Z,44.70
2019-02-21T02:30:36.445Z,47.33
2019-02-21T02:34:41.522Z,45.60
2019-02-21T02:38:46.532Z,45.23
2019-02-21T02:42:51.527Z,47.47
2019-02-21T02:46:56.533Z,48.27
2019-02-21T02:51:01.580Z,48.83
2019-02-21T02:55:06.782Z,38.00
2019-02-21T02:59:11.886Z,42.80
2019-02-21T03:03:16.955Z,41.97
2019-02-21T03:07:21.984Z,47.73
2019-02-21T03:11:27.001Z,40.77
2019-02-21T03:15:32.080Z,41.57
2019-02-21T03:19:37.108Z,51.03
2019-02-21T03:23:42.132Z,52.70
2019-02-21T03:27:47.141Z,51.17
2019-02-21T03:31:55.158Z,50.77
2019-02-21T03:35:58.966Z,47.77
2019-02-21T03:40:05.424Z,41.27
2019-02-21T03:44:10.424Z,45.93
2019-02-21T03:48:15.415Z,51.63
2019-02-21T03:52:20.429Z,47.07
2019-02-21T03:56:25.500Z,44.10
2019-02-21T04:00:30.512Z,42.33
2019-02-21T04:04:35.854Z,41.13
2019-02-21T04:08:40.937Z,44.37
2019-02-21T04:12:46.129Z,42.13
2019-02-21T04:16:51.239Z,41.27
2019-02-21T04:20:56.284Z,44.60
2019-02-21T04:25:01.294Z,42.90
2019-02-21T04:29:06.348Z,43.57
2019-02-21T04:33:11.355Z,37.97
2019-02-21T04:37:16.373Z,41.83
2019-02-21T04:41:21.405Z,44.00
2019-02-21T04:45:26.416Z,44.63
2019-02-21T04:49:31.484Z,48.33
2019-02-21T04:53:37.560Z,40.33
2019-02-21T04:57:42.645Z,42.93
2019-02-21T05:01:47.658Z,41.23
2019-02-21T05:05:52.670Z,39.03
2019-02-21T05:09:58.540Z,43.13
2019-02-21T05:14:03.777Z,41.10
2019-02-21T05:18:09.877Z,39.90
2019-02-21T05:22:14.884Z,42.20
2019-02-21T05:26:21.584Z,44.00
2019-02-21T05:30:27.162Z,44.87
2019-02-21T05:34:33.779Z,45.87
2019-02-21T05:38:42.907Z,40.57
2019-02-21T05:42:55.303Z,39.33
2019-02-21T05:47:14.005Z,37.47
2019-02-21T05:51:20.644Z,45.60
2019-02-21T05:55:33.298Z,39.30
2019-02-21T05:59:39.925Z,39.47
2019-02-21T06:04:03.063Z,43.90
2019-02-21T06:08:12.632Z,49.33
2019-02-21T06:12:37.507Z,44.00
2019-02-21T06:17:01.955Z,38.50
2019-02-21T06:21:08.611Z,42.70
2019-02-21T06:25:18.384Z,44.17
2019-02-21T06:29:25.000Z,40.60
2019-02-21T06:33:30.015Z,39.97
2019-02-21T06:37:37.687Z,45.97
2019-02-21T06:41:42.808Z,45.40
2019-02-21T06:45:48.938Z,47.53
2019-02-21T06:49:53.927Z,44.67
2019-02-21T06:53:59.000Z,36.57
2019-02-21T06:58:03.969Z,47.50
2019-02-21T07:02:08.979Z,44.60
2019-02-21T07:06:13.996Z,45.37
2019-02-21T07:10:19.059Z,47.53
2019-02-21T07:14:24.073Z,47.53
2019-02-21T07:18:29.135Z,46.53
2019-02-21T07:22:35.078Z,45.67
2019-02-21T07:26:40.080Z,41.97
2019-02-21T07:30:45.376Z,42.20
2019-02-21T07:34:50.391Z,50.23
2019-02-21T07:39:08.451Z,42.40
2019-02-21T07:43:03.033Z,50.60
2019-02-21T07:47:08.033Z,46.90
2019-02-21T07:51:13.599Z,43.73
2019-02-21T07:55:19.731Z,50.07
2019-02-21T07:59:24.736Z,48.57
2019-02-21T08:03:35.845Z,45.60
2019-02-21T08:07:36.665Z,40.47
2019-02-21T08:11:41.969Z,46.43
2019-02-21T08:15:47.028Z,39.57
2019-02-21T08:19:52.758Z,39.67
2019-02-21T08:23:59.259Z,48.60
2019-02-21T08:28:04.400Z,48.85
2019-02-21T08:32:10.903Z,48.20
2019-02-21T08:36:16.203Z,42.00
2019-02-21T08:40:21.497Z,46.83
2019-02-21T08:44:28.806Z,43.17
2019-02-21T08:48:33.737Z,46.63
2019-02-21T08:52:39.044Z,40.20
2019-02-21T08:56:44.435Z,46.13
2019-02-21T09:00:49.713Z,41.03
2019-02-21T09:04:55.019Z,40.20
2019-02-21T09:09:01.485Z,41.90
2019-02-21T09:13:08.409Z,39.50
2019-02-21T09:17:13.726Z,39.07
2019-02-21T09:21:18.996Z,38.20
2019-02-21T09:25:24.372Z,39.87
2019-02-21T09:29:29.665Z,40.50
2019-02-21T09:33:37.116Z,43.77
2019-02-21T09:37:42.080Z,44.33
2019-02-21T09:41:47.414Z,45.50
2019-02-21T09:45:52.685Z,40.17
2019-02-21T09:49:57.984Z,47.33
2019-02-21T09:54:03.279Z,42.43
2019-02-21T09:58:08.592Z,47.27
2019-02-21T10:02:13.881Z,42.77
2019-02-21T10:06:19.194Z,40.87
2019-02-21T10:10:24.572Z,47.13
2019-02-21T10:14:29.920Z,41.43
2019-02-21T10:18:35.232Z,40.80
2019-02-21T10:22:40.542Z,44.23
2019-02-21T10:26:45.814Z,39.17
2019-02-21T10:30:51.131Z,39.73
2019-02-21T10:34:56.480Z,35.83
2019-02-21T10:39:01.848Z,43.60
2019-02-21T10:43:08.754Z,41.17
2019-02-21T10:47:14.049Z,42.50
2019-02-21T10:51:19.329Z,74.93
2019-02-21T10:55:24.679Z,38.23
2019-02-21T10:59:29.998Z,43.47
2019-02-21T11:03:36.276Z,40.57
2019-02-21T11:07:41.565Z,39.10
2019-02-21T11:11:47.039Z,40.80
2019-02-21T11:15:52.341Z,41.30
2019-02-21T11:19:57.644Z,40.83
2019-02-21T11:24:02.940Z,36.00
2019-02-21T11:28:08.313Z,33.83
2019-02-21T11:32:13.692Z,35.23
2019-02-21T11:36:18.987Z,36.07
2019-02-21T11:40:24.652Z,36.37
2019-02-21T11:44:30.004Z,33.70
2019-02-21T11:48:35.385Z,32.90
2019-02-21T11:52:40.687Z,31.77
2019-02-21T11:56:46.132Z,30.03
2019-02-21T12:00:51.448Z,27.80
2019-02-21T12:04:56.745Z,27.17
2019-02-21T12:09:02.043Z,26.37
2019-02-21T12:13:08.992Z,30.00
2019-02-21T12:17:14.278Z,33.93
2019-02-21T12:21:19.555Z,33.30
2019-02-21T12:25:25.258Z,30.07
2019-02-21T12:29:30.534Z,32.37
2019-02-21T12:33:35.840Z,37.73
2019-02-21T12:37:41.125Z,26.77
2019-02-21T12:41:46.441Z,32.53
2019-02-21T12:45:53.280Z,28.50
2019-02-21T12:49:58.567Z,31.87
2019-02-21T12:54:03.871Z,30.90
2019-02-21T12:58:09.233Z,28.93
2019-02-21T13:02:14.527Z,33.67
2019-02-21T13:06:19.825Z,30.43
2019-02-21T13:10:26.207Z,34.10
2019-02-21T13:14:31.512Z,35.83
2019-02-21T13:18:36.828Z,39.93
2019-02-21T13:22:42.271Z,34.50
2019-02-21T13:26:47.617Z,34.33
2019-02-21T13:30:52.929Z,33.47
2019-02-21T13:34:58.217Z,35.40
2019-02-21T13:39:06.921Z,32.97
2019-02-21T13:43:13.156Z,32.93
2019-02-21T13:47:18.457Z,32.07
2019-02-21T13:51:23.747Z,34.57
2019-02-21T13:55:30.833Z,36.03
2019-02-21T13:59:36.045Z,33.63
2019-02-21T14:03:41.332Z,31.80
2019-02-21T14:07:46.624Z,33.90
2019-02-21T14:11:51.932Z,33.17
2019-02-21T14:15:57.253Z,28.73
2019-02-21T14:20:02.547Z,32.23
2019-02-21T14:24:07.844Z,32.93
2019-02-21T14:28:13.115Z,32.93
2019-02-21T14:32:20.330Z,41.20
2019-02-21T14:36:25.425Z,39.10
2019-02-21T14:40:30.713Z,33.67
2019-02-21T14:44:36.040Z,27.77
2019-02-21T14:48:41.319Z,33.80
2019-02-21T14:52:46.635Z,26.77
2019-02-21T14:56:51.982Z,31.13
2019-02-21T15:00:57.259Z,27.50
2019-02-21T15:05:03.992Z,24.53
2019-02-21T15:09:09.605Z,32.93
2019-02-21T15:13:15.064Z,28.40
2019-02-21T15:17:20.368Z,27.83
2019-02-21T15:21:25.662Z,31.40
2019-02-21T15:25:30.951Z,32.10
2019-02-21T15:29:39.077Z,28.80
2019-02-21T15:33:43.129Z,28.37
2019-02-21T15:37:49.572Z,35.07
2019-02-21T15:41:54.890Z,29.83
2019-02-21T15:46:00.256Z,31.23
2019-02-21T15:50:08.848Z,32.43
2019-02-21T15:54:14.191Z,32.17
2019-02-21T15:58:19.487Z,31.30
2019-02-21T16:02:24.792Z,30.37
2019-02-21T16:06:30.089Z,30.63
2019-02-21T16:10:35.517Z,30.47
2019-02-21T16:14:40.851Z,34.33
2019-02-21T16:18:46.161Z,28.87
2019-02-21T16:22:51.451Z,28.93
2019-02-21T16:26:56.852Z,29.67
2019-02-21T16:31:02.192Z,37.47
2019-02-21T16:35:10.517Z,31.27
2019-02-21T16:39:15.783Z,29.00
2019-02-21T16:43:21.063Z,32.40
2019-02-21T16:47:26.357Z,27.50
2019-02-21T16:51:31.708Z,31.03
2019-02-21T16:55:37.000Z,30.23
2019-02-21T16:59:43.372Z,29.77
2019-02-21T17:03:48.780Z,30.40
2019-02-21T17:07:55.845Z,37.33
2019-02-21T17:12:01.128Z,32.53
2019-02-21T17:16:06.425Z,29.63
2019-02-21T17:20:14.613Z,28.67
2019-02-21T17:24:19.914Z,28.43
2019-02-21T17:28:25.205Z,30.00
2019-02-21T17:32:31.027Z,26.83
2019-02-21T17:36:37.747Z,31.53
2019-02-21T17:40:43.753Z,32.77
2019-02-21T17:44:49.117Z,34.17
2019-02-21T17:48:54.563Z,32.87
2019-02-21T17:53:00.007Z,35.80
2019-02-21T17:57:05.438Z,39.07
2019-02-21T18:01:10.731Z,41.30
2019-02-21T18:05:16.276Z,44.70
2019-02-21T18:09:22.697Z,43.47
2019-02-21T18:13:28.056Z,44.07
2019-02-21T18:17:33.412Z,48.50
2019-02-21T18:21:38.895Z,49.30
2019-02-21T18:25:50.239Z,52.47
2019-02-21T18:29:55.276Z,53.40
2019-02-21T18:34:00.460Z,62.60
2019-02-21T18:38:05.999Z,71.42
2019-02-21T18:42:11.012Z,56.20
2019-02-21T18:46:16.308Z,64.77
2019-02-21T18:50:21.300Z,60.43
2019-02-21T18:54:26.327Z,61.03
2019-02-21T18:58:31.317Z,65.30
2019-02-21T19:02:36.344Z,50.30
2019-02-21T19:06:41.382Z,55.67
2019-02-21T19:10:46.385Z,67.70
2019-02-21T19:14:51.393Z,61.37
2019-02-21T19:18:56.405Z,72.13
2019-02-21T19:23:01.411Z,62.57
2019-02-21T19:27:07.596Z,59.83
2019-02-21T19:31:13.472Z,56.50
2019-02-21T19:35:18.941Z,56.53
2019-02-21T19:39:24.017Z,60.00
2019-02-21T19:43:29.928Z,62.07
2019-02-21T19:47:35.901Z,61.37
2019-02-21T19:51:41.368Z,53.23
2019-02-21T19:55:48.252Z,64.40
2019-02-21T19:59:53.371Z,64.83
2019-02-21T20:03:58.454Z,62.80
2019-02-21T20:08:08.585Z,59.43
2019-02-21T20:12:10.259Z,60.07
2019-02-21T20:16:15.328Z,63.57
2019-02-21T20:20:27.591Z,60.90
2019-02-21T20:24:32.580Z,59.53
2019-02-21T20:28:37.596Z,58.07
2019-02-21T20:32:42.779Z,58.40
2019-02-21T20:36:51.116Z,64.47
2019-02-21T20:40:54.437Z,62.83
2019-02-21T20:44:59.894Z,64.10
2019-02-21T20:49:05.271Z,58.87
2019-02-21T20:53:10.340Z,62.65
2019-02-21T20:57:15.624Z,63.43
2019-02-21T21:01:21.031Z,74.07
2019-02-21T21:05:26.396Z,73.23
2019-02-21T21:09:31.688Z,75.20
2019-02-21T21:13:37.000Z,82.77
2019-02-21T21:17:42.209Z,84.87
2019-02-21T21:21:47.491Z,88.57
2019-02-21T21:25:52.488Z,94.97
2019-02-21T21:29:57.779Z,89.33
2019-02-21T21:34:02.789Z,101.70
2019-02-21T21:38:07.872Z,107.83
2019-02-21T21:42:13.048Z,116.07
2019-02-21T21:46:18.047Z,108.90
2019-02-21T21:50:23.539Z,103.40
2019-02-21T21:54:28.591Z,116.40
2019-02-21T21:58:33.603Z,132.03
2019-02-21T22:02:38.677Z,134.63
2019-02-21T22:06:43.660Z,137.93
2019-02-21T22:10:48.668Z,117.47
2019-02-21T22:14:53.687Z,130.13
2019-02-21T22:18:58.992Z,131.70
2019-02-21T22:23:05.376Z,133.50
2019-02-21T22:27:10.440Z,124.67
2019-02-21T22:31:15.455Z,155.20
2019-02-21T22:35:20.476Z,144.60
2019-02-21T22:39:25.555Z,140.20
2019-02-21T22:43:30.802Z,142.50
2019-02-21T22:47:35.798Z,160.80
2019-02-21T22:51:41.096Z,143.40
2019-02-21T22:55:46.114Z,148.97
2019-02-21T22:59:51.416Z,153.00
2019-02-21T23:04:00.023Z,161.57
2019-02-21T23:08:07.188Z,160.07
2019-02-21T23:12:12.175Z,170.23
2019-02-21T23:16:17.995Z,173.10
2019-02-21T23:20:23.011Z,155.27
2019-02-21T23:24:28.020Z,158.30
2019-02-21T23:28:33.323Z,166.33
2019-02-21T23:32:38.325Z,153.63
2019-02-21T23:36:44.470Z,179.67
2019-02-21T23:40:49.873Z,167.97
2019-02-21T23:44:55.169Z,180.10
2019-02-21T23:49:00.188Z,182.80
2019-02-21T23:53:05.472Z,187.40
2019-02-21T23:57:10.770Z,192.17
